createdAt,value
2018-07-19T00:01:54.234Z,21.09
2018-07-19T00:04:23.227Z,21.11
2018-07-19T00:06:51.851Z,21.16
2018-07-19T00:09:22.211Z,21.06
2018-07-19T00:11:52.913Z,21.07
2018-07-19T00:14:22.564Z,21.18
2018-07-19T00:16:51.263Z,21.09
2018-07-19T00:19:19.925Z,21.19
2018-07-19T00:21:48.641Z,21.20
2018-07-19T00:24:17.297Z,21.16
2018-07-19T00:26:45.987Z,21.18
2018-07-19T00:29:14.631Z,21.23
2018-07-19T00:31:43.348Z,21.34
2018-07-19T00:34:12.002Z,21.35
2018-07-19T00:36:41.056Z,21.22
2018-07-19T00:39:09.932Z,21.39
2018-07-19T00:41:39.333Z,21.24
2018-07-19T00:44:08.022Z,21.24
2018-07-19T00:46:36.619Z,21.25
2018-07-19T00:49:05.618Z,21.31
2018-07-19T00:51:34.426Z,21.10
2018-07-19T00:54:03.384Z,21.20
2018-07-19T00:56:32.299Z,21.32
2018-07-19T00:59:01.029Z,21.06
2018-07-19T01:01:29.810Z,21.08
2018-07-19T01:03:58.660Z,21.21
2018-07-19T01:06:27.497Z,21.21
2018-07-19T01:08:56.368Z,21.21
2018-07-19T01:11:25.212Z,21.15
2018-07-19T01:13:53.936Z,21.25
2018-07-19T01:16:22.651Z,21.13
2018-07-19T01:18:51.619Z,21.16
2018-07-19T01:21:20.313Z,21.04
2018-07-19T01:23:48.972Z,21.07
2018-07-19T01:26:17.658Z,20.96
2018-07-19T01:28:46.332Z,20.93
2018-07-19T01:31:15.956Z,20.90
2018-07-19T01:33:44.809Z,20.78
2018-07-19T01:36:13.499Z,20.87
2018-07-19T01:38:42.283Z,20.86
2018-07-19T01:42:41.331Z,20.73
2018-07-19T01:45:10.747Z,20.66
2018-07-19T01:47:39.707Z,20.68
2018-07-19T01:50:09.151Z,20.70
2018-07-19T01:52:38.208Z,20.68
2018-07-19T01:55:07.230Z,20.60
2018-07-19T01:57:35.968Z,20.57
2018-07-19T02:00:05.333Z,20.46
2018-07-19T02:02:34.011Z,20.60
2018-07-19T02:05:02.741Z,20.48
2018-07-19T02:07:31.411Z,20.49
2018-07-19T02:10:00.141Z,20.56
2018-07-19T02:12:28.790Z,20.58
2018-07-19T02:14:57.691Z,20.70
2018-07-19T02:17:26.978Z,20.61
2018-07-19T02:19:55.692Z,20.44
2018-07-19T02:22:24.316Z,20.33
2018-07-19T02:24:53.205Z,20.37
2018-07-19T02:27:22.071Z,20.30
2018-07-19T02:29:50.727Z,20.20
2018-07-19T02:32:19.359Z,20.24
2018-07-19T02:34:47.964Z,20.18
2018-07-19T02:37:16.711Z,20.13
2018-07-19T02:39:45.372Z,20.10
2018-07-19T02:42:13.991Z,20.04
2018-07-19T02:44:42.671Z,20.12
2018-07-19T02:47:11.336Z,20.19
2018-07-19T02:49:40.040Z,20.18
2018-07-19T02:52:10.359Z,20.12
2018-07-19T02:54:39.000Z,20.07
2018-07-19T02:57:07.765Z,20.10
2018-07-19T02:59:36.464Z,20.03
2018-07-19T03:02:05.204Z,20.05
2018-07-19T03:04:34.843Z,19.99
2018-07-19T03:07:03.626Z,19.98
2018-07-19T03:09:32.350Z,19.86
2018-07-19T03:12:01.106Z,19.95
2018-07-19T03:14:29.845Z,19.95
2018-07-19T03:16:58.476Z,19.88
2018-07-19T03:19:27.167Z,19.75
2018-07-19T03:21:55.856Z,19.68
2018-07-19T03:24:24.536Z,19.81
2018-07-19T03:26:53.634Z,19.79
2018-07-19T03:29:22.480Z,19.79
2018-07-19T03:31:51.160Z,19.75
2018-07-19T03:34:19.929Z,19.85
2018-07-19T03:36:49.500Z,19.71
2018-07-19T03:39:18.161Z,19.66
2018-07-19T03:41:47.132Z,19.73
2018-07-19T03:44:16.706Z,19.92
2018-07-19T03:46:45.465Z,19.79
2018-07-19T03:49:14.179Z,19.76
2018-07-19T03:51:42.986Z,19.77
2018-07-19T03:54:12.390Z,19.71
2018-07-19T03:56:41.099Z,19.79
2018-07-19T03:59:10.090Z,19.85
2018-07-19T04:01:38.749Z,19.76
2018-07-19T04:04:07.477Z,19.76
2018-07-19T04:06:36.146Z,19.65
2018-07-19T04:09:06.467Z,19.56
2018-07-19T04:11:35.146Z,19.60
2018-07-19T04:14:03.997Z,19.67
2018-07-19T04:16:32.755Z,19.59
2018-07-19T04:19:01.470Z,19.54
2018-07-19T04:21:30.113Z,19.65
2018-07-19T04:23:58.795Z,19.65
2018-07-19T04:26:27.479Z,19.70
2018-07-19T04:28:56.191Z,19.62
2018-07-19T04:31:24.959Z,19.67
2018-07-19T04:33:53.748Z,19.79
2018-07-19T04:36:22.411Z,19.73
2018-07-19T04:38:51.247Z,19.76
2018-07-19T04:41:19.925Z,19.63
2018-07-19T04:43:48.633Z,19.62
2018-07-19T04:46:17.324Z,19.66
2018-07-19T04:48:46.011Z,19.71
2018-07-19T04:51:14.694Z,19.62
2018-07-19T04:53:43.454Z,19.67
2018-07-19T04:56:12.096Z,19.62
2018-07-19T04:58:40.829Z,19.75
2018-07-19T05:01:09.508Z,19.65
2018-07-19T05:03:38.260Z,19.68
2018-07-19T05:06:06.940Z,19.66
2018-07-19T05:08:35.624Z,19.71
2018-07-19T05:11:04.376Z,19.74
2018-07-19T05:13:33.573Z,19.88
2018-07-19T05:16:02.221Z,19.82
2018-07-19T05:18:30.823Z,19.87
2018-07-19T05:20:59.601Z,19.88
2018-07-19T05:23:28.312Z,19.97
2018-07-19T05:25:57.247Z,20.00
2018-07-19T05:28:25.992Z,20.05
2018-07-19T05:30:54.661Z,20.11
2018-07-19T05:33:23.361Z,20.07
2018-07-19T05:35:52.086Z,20.06
2018-07-19T05:38:20.728Z,19.97
2018-07-19T05:40:49.421Z,19.90
2018-07-19T05:43:18.127Z,19.90
2018-07-19T05:45:46.923Z,19.96
2018-07-19T05:48:15.653Z,20.00
2018-07-19T05:50:44.488Z,20.03
2018-07-19T05:53:13.253Z,20.04
2018-07-19T05:55:41.959Z,20.07
2018-07-19T05:58:10.714Z,20.03
2018-07-19T06:00:39.412Z,20.02
2018-07-19T06:03:08.100Z,20.03
2018-07-19T06:05:36.852Z,20.10
2018-07-19T06:08:05.487Z,20.07
2018-07-19T06:10:34.157Z,19.97
2018-07-19T06:13:02.824Z,20.12
2018-07-19T06:15:31.487Z,20.20
2018-07-19T06:18:00.334Z,20.18
2018-07-19T06:20:29.104Z,20.32
2018-07-19T06:22:57.872Z,20.34
2018-07-19T06:25:27.050Z,20.40
2018-07-19T06:27:55.813Z,20.45
2018-07-19T06:30:24.936Z,20.33
2018-07-19T06:32:53.621Z,20.22
2018-07-19T06:35:22.307Z,20.30
2018-07-19T06:37:50.973Z,20.26
2018-07-19T06:40:19.757Z,20.27
2018-07-19T06:42:48.567Z,20.21
2018-07-19T06:45:17.507Z,20.25
2018-07-19T06:47:46.282Z,20.16
2018-07-19T06:50:15.087Z,20.22
2018-07-19T06:52:43.858Z,20.35
2018-07-19T06:55:13.035Z,20.37
2018-07-19T06:57:41.756Z,20.40
2018-07-19T07:00:10.534Z,20.47
2018-07-19T07:02:39.209Z,20.50
2018-07-19T07:05:07.874Z,20.70
2018-07-19T07:07:36.692Z,21.01
2018-07-19T07:10:05.453Z,21.17
2018-07-19T07:12:34.141Z,21.59
2018-07-19T07:15:02.992Z,21.74
2018-07-19T07:17:31.600Z,21.80
2018-07-19T07:20:00.553Z,21.73
2018-07-19T07:22:29.316Z,21.72
2018-07-19T07:24:58.167Z,21.68
2018-07-19T07:27:27.198Z,22.14
2018-07-19T07:29:56.068Z,22.25
2018-07-19T07:32:24.877Z,22.76
2018-07-19T07:34:53.695Z,22.83
2018-07-19T07:37:22.672Z,22.90
2018-07-19T07:39:51.434Z,22.52
2018-07-19T07:42:26.606Z,22.52
2018-07-19T07:44:55.568Z,22.65
2018-07-19T07:47:24.423Z,22.47
2018-07-19T07:49:53.196Z,23.05
2018-07-19T07:52:21.932Z,22.93
2018-07-19T07:54:50.658Z,23.11
2018-07-19T07:57:19.440Z,23.00
2018-07-19T07:59:48.439Z,22.92
2018-07-19T08:02:17.196Z,23.11
2018-07-19T08:04:45.820Z,22.75
2018-07-19T08:07:15.025Z,23.07
2018-07-19T08:09:43.725Z,22.87
2018-07-19T08:12:12.456Z,22.93
2018-07-19T08:14:41.094Z,22.94
2018-07-19T08:17:09.915Z,23.22
2018-07-19T08:19:38.601Z,23.11
2018-07-19T08:22:07.290Z,23.20
2018-07-19T08:24:35.935Z,22.92
2018-07-19T08:27:04.656Z,23.27
2018-07-19T08:29:33.360Z,23.29
2018-07-19T08:32:02.181Z,23.21
2018-07-19T08:34:30.856Z,23.58
2018-07-19T08:36:59.536Z,23.72
2018-07-19T08:39:28.207Z,24.19
2018-07-19T08:41:56.950Z,24.14
2018-07-19T08:44:25.572Z,23.89
2018-07-19T08:46:54.300Z,24.24
2018-07-19T08:49:22.961Z,24.09
2018-07-19T08:51:52.232Z,24.26
2018-07-19T08:54:20.949Z,24.13
2018-07-19T08:56:49.784Z,24.41
2018-07-19T08:59:18.488Z,24.33
2018-07-19T09:01:47.360Z,24.32
2018-07-19T09:04:16.059Z,24.57
2018-07-19T09:06:44.731Z,24.84
2018-07-19T09:09:13.429Z,25.30
2018-07-19T09:11:42.088Z,24.78
2018-07-19T09:14:10.850Z,24.92
2018-07-19T09:16:39.493Z,24.76
2018-07-19T09:19:08.229Z,24.83
2018-07-19T09:21:37.066Z,25.15
2018-07-19T09:24:05.808Z,24.89
2018-07-19T09:26:34.495Z,25.28
2018-07-19T09:29:03.187Z,25.31
2018-07-19T09:31:31.876Z,25.42
2018-07-19T09:34:00.579Z,25.86
2018-07-19T09:36:29.342Z,25.38
2018-07-19T09:38:58.025Z,25.79
2018-07-19T09:41:26.660Z,25.38
2018-07-19T09:43:55.468Z,25.49
2018-07-19T09:46:24.188Z,25.03
2018-07-19T09:48:53.012Z,25.01
2018-07-19T09:51:21.798Z,25.23
2018-07-19T09:53:50.621Z,25.88
2018-07-19T09:56:19.547Z,25.92
2018-07-19T09:58:48.292Z,25.76
2018-07-19T10:01:19.725Z,25.75
2018-07-19T10:03:49.689Z,25.88
2018-07-19T10:06:18.339Z,26.06
2018-07-19T10:08:46.983Z,26.42
2018-07-19T10:11:16.272Z,25.93
2018-07-19T10:13:46.011Z,26.45
2018-07-19T10:16:14.619Z,26.60
2018-07-19T10:18:43.492Z,26.66
2018-07-19T10:21:12.139Z,26.35
2018-07-19T10:23:41.030Z,26.52
2018-07-19T10:26:09.704Z,26.06
2018-07-19T10:28:38.409Z,26.35
2018-07-19T10:31:07.375Z,26.48
2018-07-19T10:33:36.132Z,26.56
2018-07-19T10:36:04.885Z,26.34
2018-07-19T10:38:33.564Z,26.68
2018-07-19T10:41:02.251Z,27.06
2018-07-19T10:43:30.964Z,25.77
2018-07-19T10:45:59.743Z,26.09
2018-07-19T10:48:28.403Z,25.62
2018-07-19T10:50:57.190Z,25.66
2018-07-19T10:53:25.875Z,25.76
2018-07-19T10:55:54.536Z,26.40
2018-07-19T10:58:23.237Z,26.64
2018-07-19T11:00:51.907Z,26.77
2018-07-19T11:03:20.552Z,26.52
2018-07-19T11:05:49.215Z,26.91
2018-07-19T11:08:17.958Z,26.86
2018-07-19T11:10:46.815Z,26.99
2018-07-19T11:13:15.746Z,27.00
2018-07-19T11:15:44.824Z,26.96
2018-07-19T11:18:13.596Z,26.64
2018-07-19T11:20:42.328Z,26.85
2018-07-19T11:23:11.076Z,26.45
2018-07-19T11:25:39.764Z,26.78
2018-07-19T11:28:08.543Z,26.89
2018-07-19T11:30:37.252Z,26.87
2018-07-19T11:33:06.130Z,27.17
2018-07-19T11:35:34.939Z,26.96
2018-07-19T11:38:03.750Z,27.06
2018-07-19T11:40:33.017Z,26.57
2018-07-19T11:43:01.736Z,26.03
2018-07-19T11:45:30.729Z,26.28
2018-07-19T11:47:59.416Z,26.92
2018-07-19T11:50:28.155Z,26.83
2018-07-19T11:52:56.824Z,27.07
2018-07-19T11:55:25.517Z,26.23
2018-07-19T11:57:54.428Z,26.80
2018-07-19T12:00:23.212Z,26.16
2018-07-19T12:02:51.966Z,26.33
2018-07-19T12:05:20.787Z,25.95
2018-07-19T12:07:50.507Z,25.54
2018-07-19T12:10:19.187Z,25.82
2018-07-19T12:12:48.324Z,26.06
2018-07-19T12:15:17.080Z,25.83
2018-07-19T12:17:45.843Z,25.80
2018-07-19T12:20:14.540Z,25.82
2018-07-19T12:22:43.329Z,25.80
2018-07-19T12:25:12.060Z,26.45
2018-07-19T12:27:40.775Z,26.55
2018-07-19T12:30:09.223Z,26.84
2018-07-19T12:32:37.913Z,25.99
2018-07-19T12:35:06.584Z,25.99
2018-07-19T12:37:35.299Z,25.88
2018-07-19T12:40:03.993Z,26.15
2018-07-19T12:42:32.885Z,26.73
2018-07-19T12:45:01.684Z,26.91
2018-07-19T12:47:30.368Z,26.94
2018-07-19T12:49:59.253Z,27.57
2018-07-19T12:52:28.447Z,27.08
2018-07-19T12:54:57.076Z,27.53
2018-07-19T12:57:25.739Z,27.22
2018-07-19T12:59:54.378Z,27.55
2018-07-19T13:02:23.013Z,26.85
2018-07-19T13:04:51.803Z,26.97
2018-07-19T13:07:20.514Z,26.79
2018-07-19T13:09:49.193Z,26.95
2018-07-19T13:12:18.168Z,27.02
2018-07-19T13:14:47.104Z,27.40
2018-07-19T13:17:15.886Z,27.24
2018-07-19T13:19:44.532Z,27.54
2018-07-19T13:22:13.207Z,27.56
2018-07-19T13:24:42.457Z,27.27
2018-07-19T13:27:11.154Z,27.24
2018-07-19T13:29:39.889Z,27.00
2018-07-19T13:32:08.720Z,27.11
2018-07-19T13:34:37.636Z,26.99
2018-07-19T13:37:06.292Z,27.14
2018-07-19T13:39:34.937Z,27.06
2018-07-19T13:42:03.630Z,26.85
2018-07-19T13:44:32.351Z,26.90
2018-07-19T13:47:00.997Z,26.79
2018-07-19T13:49:29.680Z,26.93
2018-07-19T13:51:58.386Z,26.90
2018-07-19T13:54:47.643Z,26.93
2018-07-19T13:57:16.479Z,27.04
2018-07-19T13:59:45.300Z,27.04
2018-07-19T14:02:14.412Z,26.95
2018-07-19T14:04:43.115Z,27.24
2018-07-19T14:07:11.864Z,27.46
2018-07-19T14:09:40.761Z,27.38
2018-07-19T14:12:09.468Z,27.27
2018-07-19T14:14:38.189Z,27.28
2018-07-19T14:17:07.024Z,27.23
2018-07-19T14:19:36.009Z,27.09
2018-07-19T14:22:04.788Z,27.29
2018-07-19T14:24:33.534Z,27.06
2018-07-19T14:27:02.362Z,26.60
2018-07-19T14:29:31.146Z,26.78
2018-07-19T14:32:00.294Z,26.38
2018-07-19T14:34:29.034Z,26.57
2018-07-19T14:36:57.732Z,26.37
2018-07-19T14:39:26.674Z,26.27
2018-07-19T14:41:55.367Z,26.12
2018-07-19T14:44:24.189Z,26.41
2018-07-19T14:46:52.866Z,26.33
2018-07-19T14:49:21.554Z,26.42
2018-07-19T14:51:50.242Z,26.17
2018-07-19T14:54:19.169Z,26.08
2018-07-19T14:56:47.808Z,26.17
2018-07-19T14:59:16.604Z,26.20
2018-07-19T15:01:45.220Z,25.92
2018-07-19T15:04:13.939Z,26.13
2018-07-19T15:06:42.564Z,26.05
2018-07-19T15:09:11.860Z,26.15
2018-07-19T15:11:41.057Z,26.26
2018-07-19T15:14:09.721Z,26.18
2018-07-19T15:16:38.364Z,26.01
2018-07-19T15:19:07.056Z,25.93
2018-07-19T15:21:35.799Z,25.94
2018-07-19T15:24:04.569Z,25.83
2018-07-19T15:26:33.314Z,25.90
2018-07-19T15:29:02.140Z,26.13
2018-07-19T15:31:30.796Z,25.71
2018-07-19T15:33:59.608Z,25.52
2018-07-19T15:36:28.285Z,25.46
2018-07-19T15:38:56.968Z,25.64
2018-07-19T15:41:25.668Z,25.62
2018-07-19T15:43:54.354Z,25.29
2018-07-19T15:46:23.000Z,25.24
2018-07-19T15:48:51.646Z,25.33
2018-07-19T15:51:20.265Z,25.43
2018-07-19T15:53:48.990Z,25.14
2018-07-19T15:56:17.628Z,25.25
2018-07-19T15:58:46.355Z,25.17
2018-07-19T16:01:15.104Z,25.07
2018-07-19T16:03:43.862Z,25.19
2018-07-19T16:06:12.540Z,25.17
2018-07-19T16:08:41.304Z,25.02
2018-07-19T16:11:10.120Z,25.02
2018-07-19T16:13:38.828Z,25.10
2018-07-19T16:16:07.690Z,25.14
2018-07-19T16:18:36.407Z,24.90
2018-07-19T16:21:05.137Z,25.03
2018-07-19T16:23:34.030Z,24.87
2018-07-19T16:26:03.217Z,24.75
2018-07-19T16:28:32.260Z,24.71
2018-07-19T16:31:00.977Z,24.69
2018-07-19T16:33:29.724Z,24.61
2018-07-19T16:35:58.368Z,24.66
2018-07-19T16:38:27.170Z,24.75
2018-07-19T16:40:56.019Z,24.43
2018-07-19T16:43:24.961Z,24.33
2018-07-19T16:45:53.819Z,24.05
2018-07-19T16:48:23.097Z,24.09
2018-07-19T16:50:51.877Z,24.25
2018-07-19T16:53:20.732Z,24.30
2018-07-19T16:55:49.440Z,24.33
2018-07-19T16:58:18.153Z,24.29
2018-07-19T17:00:46.904Z,24.11
2018-07-19T17:03:15.589Z,24.35
2018-07-19T17:05:44.280Z,24.14
2018-07-19T17:08:13.004Z,24.01
2018-07-19T17:10:41.805Z,24.06
2018-07-19T17:13:10.592Z,23.87
2018-07-19T17:15:39.326Z,23.82
2018-07-19T17:18:08.083Z,23.87
2018-07-19T17:20:36.858Z,23.73
2018-07-19T17:23:05.543Z,23.64
2018-07-19T17:25:34.233Z,23.57
2018-07-19T17:28:03.163Z,23.92
2018-07-19T17:30:31.827Z,23.90
2018-07-19T17:33:00.572Z,23.60
2018-07-19T17:35:29.321Z,23.69
2018-07-19T17:37:58.029Z,23.80
2018-07-19T17:40:27.731Z,23.92
2018-07-19T17:42:56.584Z,23.87
2018-07-19T17:45:25.261Z,23.70
2018-07-19T17:47:54.039Z,23.75
2018-07-19T17:50:22.740Z,23.74
2018-07-19T17:52:51.793Z,23.83
2018-07-19T17:55:20.837Z,23.88
2018-07-19T17:57:49.559Z,23.86
2018-07-19T18:00:18.244Z,23.84
2018-07-19T18:02:46.965Z,23.71
2018-07-19T18:05:17.465Z,23.54
2018-07-19T18:07:46.504Z,23.64
2018-07-19T18:10:15.159Z,23.68
2018-07-19T18:12:44.040Z,23.74
2018-07-19T18:15:12.750Z,23.74
2018-07-19T18:17:41.698Z,23.75
2018-07-19T18:20:10.425Z,23.81
2018-07-19T18:22:39.137Z,23.81
2018-07-19T18:25:08.268Z,23.56
2018-07-19T18:27:37.144Z,23.56
2018-07-19T18:30:06.852Z,23.59
2018-07-19T18:32:35.543Z,23.77
2018-07-19T18:35:04.226Z,23.69
2018-07-19T18:37:33.019Z,23.71
2018-07-19T18:40:01.665Z,23.54
2018-07-19T18:42:30.398Z,23.39
2018-07-19T18:44:59.144Z,23.53
2018-07-19T18:47:27.822Z,23.50
2018-07-19T18:49:56.468Z,23.36
2018-07-19T18:52:25.124Z,23.54
2018-07-19T18:54:53.788Z,23.36
2018-07-19T18:57:22.498Z,23.35
2018-07-19T18:59:51.180Z,23.36
2018-07-19T19:02:19.866Z,23.30
2018-07-19T19:04:48.862Z,23.29
2018-07-19T19:07:17.602Z,23.07
2018-07-19T19:09:46.417Z,23.07
2018-07-19T19:12:15.149Z,22.98
2018-07-19T19:14:43.793Z,22.92
2018-07-19T19:17:12.593Z,22.83
2018-07-19T19:19:41.312Z,22.99
2018-07-19T19:22:09.981Z,22.85
2018-07-19T19:24:38.720Z,22.97
2018-07-19T19:27:07.450Z,23.03
2018-07-19T19:29:36.925Z,22.98
2018-07-19T19:32:05.800Z,22.94
2018-07-19T19:34:34.471Z,22.85
2018-07-19T19:37:03.231Z,22.84
2018-07-19T19:39:32.014Z,22.57
2018-07-19T19:42:00.885Z,22.77
2018-07-19T19:44:29.696Z,22.78
2018-07-19T19:46:59.593Z,22.37
2018-07-19T19:49:28.422Z,22.40
2018-07-19T19:51:57.141Z,22.27
2018-07-19T19:54:26.012Z,22.37
2018-07-19T19:56:54.795Z,22.43
2018-07-19T19:59:23.549Z,22.42
2018-07-19T20:01:53.365Z,22.29
2018-07-19T20:04:22.082Z,22.16
2018-07-19T20:06:50.921Z,22.13
2018-07-19T20:09:19.912Z,22.22
2018-07-19T20:11:48.793Z,22.04
2018-07-19T20:14:17.582Z,22.11
2018-07-19T20:16:46.269Z,21.99
2018-07-19T20:19:15.232Z,21.59
2018-07-19T20:21:43.955Z,21.66
2018-07-19T20:24:13.661Z,21.57
2018-07-19T20:26:42.712Z,21.48
2018-07-19T20:29:11.477Z,21.64
2018-07-19T20:31:40.396Z,21.44
2018-07-19T20:34:09.291Z,21.22
2018-07-19T20:36:38.802Z,21.15
2018-07-19T20:39:08.401Z,21.25
2018-07-19T20:41:37.796Z,21.25
2018-07-19T20:44:06.595Z,21.25
2018-07-19T20:46:36.856Z,21.33
2018-07-19T20:49:05.641Z,21.21
2018-07-19T20:51:34.360Z,21.21
2018-07-19T20:54:03.088Z,21.07
2018-07-19T20:56:31.991Z,21.11
2018-07-19T20:59:00.761Z,21.07
2018-07-19T21:01:29.444Z,21.32
2018-07-19T21:03:58.177Z,21.52
2018-07-19T21:06:30.592Z,21.44
2018-07-19T21:08:59.805Z,21.58
2018-07-19T21:11:28.531Z,21.42
2018-07-19T21:13:57.306Z,21.28
2018-07-19T21:16:26.188Z,21.35
2018-07-19T21:18:55.108Z,21.38
2018-07-19T21:21:24.012Z,21.31
2018-07-19T21:23:52.711Z,21.40
2018-07-19T21:26:23.352Z,21.49
2018-07-19T21:28:55.498Z,21.52
2018-07-19T21:31:25.788Z,21.48
2018-07-19T21:33:54.585Z,21.48
2018-07-19T21:36:23.327Z,21.35
2018-07-19T21:38:52.484Z,21.25
2018-07-19T21:41:26.349Z,21.11
2018-07-19T21:43:55.306Z,20.98
2018-07-19T21:46:24.001Z,21.01
2018-07-19T21:48:52.688Z,20.90
2018-07-19T21:51:27.348Z,20.95
2018-07-19T21:53:56.949Z,20.81
2018-07-19T21:56:25.651Z,20.79
2018-07-19T21:58:54.427Z,20.75
2018-07-19T22:01:30.893Z,20.72
2018-07-19T22:03:59.652Z,20.54
2018-07-19T22:06:33.896Z,20.69
2018-07-19T22:09:02.681Z,20.63
2018-07-19T22:11:31.420Z,20.71
2018-07-19T22:14:00.125Z,20.80
2018-07-19T22:16:28.818Z,20.77
2018-07-19T22:18:57.500Z,20.86
2018-07-19T22:21:26.474Z,20.92
2018-07-19T22:23:55.248Z,20.75
2018-07-19T22:26:24.017Z,20.81
2018-07-19T22:28:52.636Z,20.69
2018-07-19T22:31:24.615Z,20.77
2018-07-19T22:33:53.368Z,20.83
2018-07-19T22:36:22.052Z,20.66
2018-07-19T22:38:50.773Z,20.64
2018-07-19T22:41:19.546Z,20.60
2018-07-19T22:43:48.233Z,20.66
2018-07-19T22:46:16.851Z,20.56
2018-07-19T22:48:45.545Z,20.40
2018-07-19T22:51:14.228Z,20.28
2018-07-19T22:53:44.027Z,20.24
2018-07-19T22:56:15.243Z,20.33
2018-07-19T22:58:43.997Z,20.07
2018-07-19T23:01:12.797Z,19.77
2018-07-19T23:03:43.704Z,19.76
2018-07-19T23:06:12.512Z,19.69
2018-07-19T23:08:41.269Z,19.68
2018-07-19T23:11:09.986Z,19.76
2018-07-19T23:13:38.708Z,19.62
2018-07-19T23:16:07.685Z,19.51
2018-07-19T23:18:36.397Z,19.55
2018-07-19T23:21:05.376Z,19.58
2018-07-19T23:23:34.144Z,19.53
2018-07-19T23:26:04.049Z,19.48
2018-07-19T23:28:32.760Z,19.54
2018-07-19T23:31:01.464Z,19.45
2018-07-19T23:33:30.235Z,19.48
2018-07-19T23:36:07.456Z,19.53
2018-07-19T23:38:41.472Z,19.23
2018-07-19T23:41:14.456Z,19.26
2018-07-19T23:43:47.825Z,19.18
2018-07-19T23:46:18.824Z,19.16
2018-07-19T23:48:47.930Z,19.20
2018-07-19T23:51:16.613Z,19.28
2018-07-19T23:53:45.253Z,19.20
2018-07-19T23:56:13.946Z,19.09
2018-07-19T23:58:42.652Z,19.06
